Time;durP1;ratioP1;P1;durP2;ratioP2;P2;SDS_P1;SDS_P2;PMS_P1;PMS_P2;Temp;Humidity;BMP_temperature;BMP_pressure;BME280_temperature;BME280_humidity;BME280_pressure;Samples;Min_cycle;Max_cycle;Signal;HPM_P1;HPM_P2
2022/07/06 00:02:14;;;;;;;2.72;2.63;;;;;;;;;;5036970;28;20080;-73
2022/07/06 00:04:39;;;;;;;2.85;2.75;;;;;;;;;;5037226;28;20021;-73
2022/07/06 00:07:05;;;;;;;3.20;3.00;;;;;;;;;;5036797;28;20156;-73
2022/07/06 00:09:31;;;;;;;2.72;2.63;;;;;;;;;;5036969;28;20104;-73
2022/07/06 00:11:56;;;;;;;2.72;2.63;;;;;;;;;;5036652;28;20044;-74
2022/07/06 00:14:22;;;;;;;3.80;2.72;;;;;;;;;;5036702;28;20104;-73
2022/07/06 00:16:47;;;;;;;3.72;2.90;;;;;;;;;;5036785;28;20036;-73
2022/07/06 00:19:12;;;;;;;2.83;2.72;;;;;;;;;;5036651;28;20014;-73
2022/07/06 00:21:38;;;;;;;2.50;2.40;;;;;;;;;;5036447;28;20365;-73
2022/07/06 00:24:04;;;;;;;2.67;2.47;;;;;;;;;;5036779;28;20026;-73
2022/07/06 00:26:29;;;;;;;2.65;2.55;;;;;;;;;;5018750;28;20403;-74
2022/07/06 00:28:55;;;;;;;2.53;2.33;;;;;;;;;;5036635;28;20514;-68
2022/07/06 00:31:20;;;;;;;2.45;2.35;;;;;;;;;;5002929;28;20475;-68
2022/07/06 00:33:46;;;;;;;2.97;2.60;;;;;;;;;;5036388;28;20025;-68
2022/07/06 00:36:12;;;;;;;2.53;2.42;;;;;;;;;;5036520;28;20049;-68
2022/07/06 00:38:37;;;;;;;2.63;2.53;;;;;;;;;;5018503;28;20076;-68
2022/07/06 00:41:03;;;;;;;2.67;2.53;;;;;;;;;;5018431;28;20025;-69
2022/07/06 00:43:28;;;;;;;2.97;2.78;;;;;;;;;;5017292;28;20376;-69
2022/07/06 00:45:54;;;;;;;2.85;2.75;;;;;;;;;;5036161;28;20072;-69
2022/07/06 00:48:19;;;;;;;3.25;3.03;;;;;;;;;;5036184;28;20025;-69
2022/07/06 00:50:45;;;;;;;3.45;3.17;;;;;;;;;;5035941;28;20383;-69
2022/07/06 00:53:12;;;;;;;5.80;3.40;;;;;;;;;;5036362;28;20025;-69
2022/07/06 00:55:41;;;;;;;4.45;4.18;;;;;;;;;;5035957;28;20475;-69
2022/07/06 00:58:07;;;;;;;4.55;4.25;;;;;;;;;;5036119;28;20467;-69
2022/07/06 01:00:33;;;;;;;5.50;5.00;;;;;;;;;;5035947;28;20029;-70
2022/07/06 01:02:59;;;;;;;6.40;5.55;;;;;;;;;;5035973;28;20045;-68
2022/07/06 01:05:24;;;;;;;6.65;5.93;;;;;;;;;;5018008;28;20483;-68
2022/07/06 01:07:50;;;;;;;6.68;6.10;;;;;;;;;;5017874;28;20353;-69
2022/07/06 01:10:17;;;;;;;5.68;5.28;;;;;;;;;;5035604;28;20124;-68
2022/07/06 01:12:43;;;;;;;6.20;5.60;;;;;;;;;;5017834;28;20017;-69
2022/07/06 01:15:11;;;;;;;10.20;7.88;;;;;;;;;;5018113;28;20025;-69
2022/07/06 01:17:38;;;;;;;9.15;8.00;;;;;;;;;;5017660;28;20463;-69
2022/07/06 01:20:15;;;;;;;9.43;8.25;;;;;;;;;;5017651;28;20025;-67
2022/07/06 01:22:41;;;;;;;8.80;7.90;;;;;;;;;;5017649;28;20116;-68
2022/07/06 01:25:07;;;;;;;11.10;9.27;;;;;;;;;;5035310;28;20064;-70
2022/07/06 01:27:39;;;;;;;9.65;8.45;;;;;;;;;;5035171;28;20046;-70
2022/07/06 01:30:06;;;;;;;8.80;7.90;;;;;;;;;;5035355;28;20055;-70
2022/07/06 01:32:32;;;;;;;10.13;8.88;;;;;;;;;;5017468;28;20108;-69
2022/07/06 01:34:57;;;;;;;8.82;8.00;;;;;;;;;;5017525;28;20080;-70
2022/07/06 01:37:23;;;;;;;9.52;8.73;;;;;;;;;;5017858;28;20092;-70
2022/07/06 01:39:48;;;;;;;9.90;8.90;;;;;;;;;;5035255;28;20107;-69
2022/07/06 01:42:13;;;;;;;8.23;7.57;;;;;;;;;;5035029;28;20014;-69
2022/07/06 01:44:39;;;;;;;10.18;9.18;;;;;;;;;;5017216;28;20026;-69
2022/07/06 01:47:05;;;;;;;9.15;8.32;;;;;;;;;;5035128;28;20028;-69
2022/07/06 01:49:30;;;;;;;11.52;9.25;;;;;;;;;;5035212;28;20040;-69
2022/07/06 01:51:55;;;;;;;9.07;8.10;;;;;;;;;;5034868;28;20077;-70
2022/07/06 01:54:22;;;;;;;10.95;9.82;;;;;;;;;;5016904;28;20025;-69
2022/07/06 01:56:47;;;;;;;9.20;8.32;;;;;;;;;;5016929;28;20069;-70
2022/07/06 01:59:13;;;;;;;9.05;8.27;;;;;;;;;;5016967;28;20025;-70
2022/07/06 02:01:39;;;;;;;8.18;7.47;;;;;;;;;;5017269;28;20116;-70
2022/07/06 02:04:05;;;;;;;8.48;7.78;;;;;;;;;;5017926;28;20367;-69
2022/07/06 02:06:31;;;;;;;9.45;7.93;;;;;;;;;;5017254;28;20057;-69
2022/07/06 02:08:57;;;;;;;8.60;7.90;;;;;;;;;;5016801;28;20067;-70
2022/07/06 02:11:22;;;;;;;9.27;8.52;;;;;;;;;;5000407;28;20076;-70
2022/07/06 02:13:48;;;;;;;10.02;9.05;;;;;;;;;;5016591;28;20037;-70
2022/07/06 02:16:14;;;;;;;12.15;9.15;;;;;;;;;;5016887;28;20108;-70
2022/07/06 02:18:40;;;;;;;11.10;9.68;;;;;;;;;;5034344;28;20096;-70
2022/07/06 02:21:05;;;;;;;10.55;9.55;;;;;;;;;;5034732;28;20044;-70
2022/07/06 02:23:31;;;;;;;11.43;10.38;;;;;;;;;;5016562;28;20036;-70
2022/07/06 02:25:57;;;;;;;12.40;11.15;;;;;;;;;;5016447;28;20025;-70
2022/07/06 02:28:24;;;;;;;12.23;10.95;;;;;;;;;;5016189;28;20124;-69
2022/07/06 02:30:50;;;;;;;12.10;10.82;;;;;;;;;;5016354;28;20040;-70
2022/07/06 02:33:16;;;;;;;12.05;10.80;;;;;;;;;;5016355;28;20029;-70
2022/07/06 02:35:44;;;;;;;13.35;12.02;;;;;;;;;;5016253;28;20399;-70
2022/07/06 02:38:11;;;;;;;13.18;11.68;;;;;;;;;;5016612;28;20056;-69
2022/07/06 02:40:38;;;;;;;13.35;12.05;;;;;;;;;;5016238;28;20455;-69
2022/07/06 02:43:04;;;;;;;14.15;12.25;;;;;;;;;;5016245;28;20085;-68
2022/07/06 02:45:30;;;;;;;31.02;12.85;;;;;;;;;;5016156;28;20474;-69
2022/07/06 02:47:57;;;;;;;12.57;11.38;;;;;;;;;;5016165;28;20037;-69
2022/07/06 02:50:23;;;;;;;12.13;11.10;;;;;;;;;;5016088;28;20025;-68
2022/07/06 02:52:49;;;;;;;10.32;9.32;;;;;;;;;;5016062;28;20037;-68
2022/07/06 02:55:15;;;;;;;10.07;9.07;;;;;;;;;;5016070;28;20014;-67
2022/07/06 02:57:41;;;;;;;9.98;9.02;;;;;;;;;;5015916;28;20034;-69
2022/07/06 03:00:07;;;;;;;9.10;8.23;;;;;;;;;;5016733;28;20039;-69
2022/07/06 03:02:33;;;;;;;9.02;8.13;;;;;;;;;;5016005;28;20543;-69
2022/07/06 03:05:00;;;;;;;8.57;7.40;;;;;;;;;;5015436;28;20021;-70
2022/07/06 03:07:27;;;;;;;8.57;7.75;;;;;;;;;;5016070;28;20535;-70
2022/07/06 03:09:52;;;;;;;9.25;8.35;;;;;;;;;;5015882;28;20030;-70
2022/07/06 03:12:19;;;;;;;8.80;8.00;;;;;;;;;;4999616;28;20029;-70
2022/07/06 03:14:44;;;;;;;7.43;6.72;;;;;;;;;;5015833;28;20021;-69
2022/07/06 03:17:10;;;;;;;8.40;7.35;;;;;;;;;;5015910;28;20034;-70
2022/07/06 03:19:36;;;;;;;7.68;7.07;;;;;;;;;;5015804;28;20021;-70
2022/07/06 03:22:02;;;;;;;7.20;6.68;;;;;;;;;;4999444;28;20113;-70
2022/07/06 03:24:28;;;;;;;6.93;6.35;;;;;;;;;;5033616;28;20045;-70
2022/07/06 03:26:54;;;;;;;6.38;5.72;;;;;;;;;;5015610;28;20073;-70
2022/07/06 03:29:20;;;;;;;5.68;5.25;;;;;;;;;;5015716;28;20026;-70
2022/07/06 03:31:46;;;;;;;4.00;3.80;;;;;;;;;;5015683;28;20044;-74
2022/07/06 03:34:12;;;;;;;3.90;3.60;;;;;;;;;;5015655;28;20104;-73
2022/07/06 03:36:38;;;;;;;6.00;4.00;;;;;;;;;;5015694;28;20029;-73
2022/07/06 03:39:03;;;;;;;3.85;3.55;;;;;;;;;;5015599;28;20073;-73
2022/07/06 03:41:30;;;;;;;4.28;3.28;;;;;;;;;;5015754;28;20061;-74
2022/07/06 03:43:55;;;;;;;3.90;3.60;;;;;;;;;;5015544;28;20017;-74
2022/07/06 03:46:21;;;;;;;5.22;3.75;;;;;;;;;;5015675;28;20029;-73
2022/07/06 03:48:46;;;;;;;3.72;3.53;;;;;;;;;;5033193;28;20026;-73
2022/07/06 03:51:12;;;;;;;4.18;3.88;;;;;;;;;;5015819;28;20121;-73
2022/07/06 03:53:38;;;;;;;3.80;3.60;;;;;;;;;;5033472;28;20109;-73
2022/07/06 03:58:48;;;;;;;3.42;3.15;;;;;;;;;;5033674;28;20058;-73
2022/07/06 04:01:13;;;;;;;3.42;3.22;;;;;;;;;;5015875;28;20039;-73
2022/07/06 04:03:39;;;;;;;4.20;3.80;;;;;;;;;;5033481;28;20045;-69
2022/07/06 04:06:04;;;;;;;4.05;3.70;;;;;;;;;;5016108;28;20137;-71
2022/07/06 04:08:31;;;;;;;3.50;3.30;;;;;;;;;;5015548;28;20063;-71
2022/07/06 04:10:57;;;;;;;4.25;3.22;;;;;;;;;;5015472;28;20486;-71
2022/07/06 04:13:25;;;;;;;4.32;3.60;;;;;;;;;;5015413;28;20066;-71
2022/07/06 04:15:51;;;;;;;3.63;3.42;;;;;;;;;;5014604;28;20021;-71
2022/07/06 04:18:17;;;;;;;3.30;3.08;;;;;;;;;;5017576;28;20060;-71
2022/07/06 04:20:50;;;;;;;3.33;3.22;;;;;;;;;;5016461;28;20032;-71
2022/07/06 04:23:16;;;;;;;3.72;3.40;;;;;;;;;;5017188;28;20033;-71
2022/07/06 04:25:42;;;;;;;3.20;3.03;;;;;;;;;;5017016;28;20022;-71
2022/07/06 04:28:07;;;;;;;3.80;3.50;;;;;;;;;;5016803;28;20049;-71
2022/07/06 04:30:34;;;;;;;3.38;3.10;;;;;;;;;;5035550;28;20395;-71
2022/07/06 04:33:01;;;;;;;3.25;3.05;;;;;;;;;;5016965;28;20464;-71
2022/07/06 04:35:30;;;;;;;3.47;3.28;;;;;;;;;;5016889;28;20372;-71
2022/07/06 04:37:56;;;;;;;3.42;3.20;;;;;;;;;;5000594;28;20471;-71
2022/07/06 04:40:22;;;;;;;3.53;3.33;;;;;;;;;;5017368;28;20100;-70
2022/07/06 04:42:51;;;;;;;4.53;3.38;;;;;;;;;;5016754;28;20454;-71
2022/07/06 04:45:16;;;;;;;3.22;3.03;;;;;;;;;;5017036;28;20113;-71
2022/07/06 04:47:44;;;;;;;4.07;3.65;;;;;;;;;;5017336;28;20592;-70
2022/07/06 04:50:09;;;;;;;3.70;3.50;;;;;;;;;;5017497;28;20025;-70
2022/07/06 04:52:35;;;;;;;4.00;3.63;;;;;;;;;;5017470;28;20033;-70
2022/07/06 04:55:01;;;;;;;3.90;3.60;;;;;;;;;;5017575;28;20527;-70
2022/07/06 04:57:29;;;;;;;3.70;3.50;;;;;;;;;;5035329;28;20128;-71
2022/07/06 04:59:56;;;;;;;3.60;3.40;;;;;;;;;;5017583;28;20097;-69
2022/07/06 05:02:22;;;;;;;4.28;3.45;;;;;;;;;;5017391;28;20053;-70
2022/07/06 05:04:48;;;;;;;3.78;3.47;;;;;;;;;;5017400;28;20025;-70
2022/07/06 05:07:14;;;;;;;3.78;3.38;;;;;;;;;;5017640;28;20116;-70
2022/07/06 05:09:40;;;;;;;3.22;3.00;;;;;;;;;;5035445;28;20101;-70
2022/07/06 05:12:07;;;;;;;3.90;3.70;;;;;;;;;;5017547;28;20446;-69
2022/07/06 05:14:33;;;;;;;5.72;5.32;;;;;;;;;;5017524;28;20391;-69
2022/07/06 05:16:59;;;;;;;4.45;4.10;;;;;;;;;;5017271;28;20021;-69
2022/07/06 05:19:24;;;;;;;3.35;3.15;;;;;;;;;;5016663;28;20014;-69
2022/07/06 05:21:51;;;;;;;3.28;3.08;;;;;;;;;;5016588;28;20548;-69
2022/07/06 05:24:16;;;;;;;3.25;3.05;;;;;;;;;;5034343;28;20028;-69
2022/07/06 05:26:42;;;;;;;3.45;3.25;;;;;;;;;;5016385;28;20191;-72
2022/07/06 05:29:08;;;;;;;4.10;3.80;;;;;;;;;;5015921;28;20033;-66
2022/07/06 05:31:33;;;;;;;3.70;3.40;;;;;;;;;;5034534;28;20033;-67
2022/07/06 05:34:00;;;;;;;3.53;3.30;;;;;;;;;;5034175;28;20357;-67
2022/07/06 05:36:26;;;;;;;3.55;3.35;;;;;;;;;;5016214;28;20068;-67
2022/07/06 05:38:52;;;;;;;3.17;2.97;;;;;;;;;;5033766;28;20104;-67
2022/07/06 05:41:17;;;;;;;3.75;3.45;;;;;;;;;;5016264;28;20100;-67
2022/07/06 05:43:43;;;;;;;3.90;3.67;;;;;;;;;;5016233;28;20014;-67
2022/07/06 05:46:09;;;;;;;3.80;3.60;;;;;;;;;;5016161;28;20392;-67
2022/07/06 05:51:20;;;;;;;3.92;3.72;;;;;;;;;;5016199;28;20029;-66
2022/07/06 05:53:47;;;;;;;4.63;4.32;;;;;;;;;;4999775;28;20028;-66
2022/07/06 05:56:12;;;;;;;4.07;3.88;;;;;;;;;;5033654;28;20384;-67
2022/07/06 05:58:39;;;;;;;3.97;3.67;;;;;;;;;;5015941;28;20017;-67
2022/07/06 06:01:06;;;;;;;3.88;3.67;;;;;;;;;;5015863;28;20032;-67
2022/07/06 06:03:33;;;;;;;4.22;3.67;;;;;;;;;;5015903;28;20383;-67
2022/07/06 06:06:00;;;;;;;4.15;3.80;;;;;;;;;;5015749;28;20483;-67
2022/07/06 06:08:26;;;;;;;3.97;3.72;;;;;;;;;;5015806;28;20039;-67
2022/07/06 06:10:53;;;;;;;3.70;3.47;;;;;;;;;;4999528;28;20097;-67
2022/07/06 06:13:20;;;;;;;3.60;3.40;;;;;;;;;;5015698;28;20069;-67
2022/07/06 06:15:46;;;;;;;4.20;3.75;;;;;;;;;;5015501;28;20034;-67
2022/07/06 06:18:13;;;;;;;4.40;4.20;;;;;;;;;;5015527;28;20022;-67
2022/07/06 06:20:38;;;;;;;4.00;3.70;;;;;;;;;;5033331;28;20036;-72
2022/07/06 06:23:04;;;;;;;3.70;3.50;;;;;;;;;;5033838;28;20026;-72
2022/07/06 06:25:34;;;;;;;4.43;4.03;;;;;;;;;;5034264;28;20033;-72
2022/07/06 06:27:59;;;;;;;4.38;4.05;;;;;;;;;;5033648;28;20499;-72
2022/07/06 06:30:25;;;;;;;3.80;3.60;;;;;;;;;;5034944;28;20037;-72
2022/07/06 06:32:51;;;;;;;3.53;3.33;;;;;;;;;;5016955;28;20024;-72
2022/07/06 06:35:17;;;;;;;3.70;3.50;;;;;;;;;;5034494;28;20539;-72
2022/07/06 06:37:42;;;;;;;3.70;3.50;;;;;;;;;;5016793;28;20025;-72
2022/07/06 06:40:08;;;;;;;6.07;5.65;;;;;;;;;;5033786;28;20153;-72
2022/07/06 06:42:35;;;;;;;4.93;4.63;;;;;;;;;;5034264;28;20025;-72
2022/07/06 06:45:05;;;;;;;3.83;3.53;;;;;;;;;;5016521;28;20026;-72
2022/07/06 06:47:31;;;;;;;3.60;3.40;;;;;;;;;;5033886;28;20021;-72
2022/07/06 06:49:56;;;;;;;4.00;3.80;;;;;;;;;;5034126;28;20035;-72
2022/07/06 06:52:22;;;;;;;3.70;3.50;;;;;;;;;;5016196;28;20438;-72
2022/07/06 06:54:47;;;;;;;4.90;3.50;;;;;;;;;;5034102;28;20033;-72
2022/07/06 06:57:12;;;;;;;3.83;3.58;;;;;;;;;;5033999;28;20077;-72
2022/07/06 06:59:38;;;;;;;3.70;3.50;;;;;;;;;;5034021;28;20025;-72
2022/07/06 07:02:03;;;;;;;3.90;3.50;;;;;;;;;;5016409;28;20028;-72
2022/07/06 07:04:30;;;;;;;3.90;3.67;;;;;;;;;;4999707;28;20039;-72
2022/07/06 07:06:56;;;;;;;4.13;3.83;;;;;;;;;;5034229;28;20030;-72
2022/07/06 07:09:21;;;;;;;4.43;4.07;;;;;;;;;;5033614;28;20091;-72
2022/07/06 07:11:47;;;;;;;3.83;3.63;;;;;;;;;;5033888;28;20029;-72
2022/07/06 07:14:12;;;;;;;3.92;3.63;;;;;;;;;;5033845;28;20116;-72
2022/07/06 07:16:37;;;;;;;4.35;4.05;;;;;;;;;;5033744;28;20024;-72
2022/07/06 07:19:03;;;;;;;4.13;3.92;;;;;;;;;;5033521;28;20029;-72
2022/07/06 07:21:28;;;;;;;5.18;4.78;;;;;;;;;;5033539;28;20022;-71
2022/07/06 07:23:54;;;;;;;4.50;4.20;;;;;;;;;;5015968;28;20484;-71
2022/07/06 07:26:19;;;;;;;4.95;4.65;;;;;;;;;;5033753;28;20018;-72
2022/07/06 07:28:45;;;;;;;4.88;4.55;;;;;;;;;;5033329;28;20132;-72
2022/07/06 07:31:10;;;;;;;4.82;4.30;;;;;;;;;;5015737;28;20061;-72
2022/07/06 07:33:35;;;;;;;5.45;5.07;;;;;;;;;;5033944;28;20073;-71
2022/07/06 07:36:00;;;;;;;6.13;5.70;;;;;;;;;;5033275;28;20029;-72
2022/07/06 07:38:26;;;;;;;4.55;4.25;;;;;;;;;;5033362;28;20456;-71
2022/07/06 07:40:55;;;;;;;6.72;6.20;;;;;;;;;;5033636;28;20499;-72
2022/07/06 07:43:20;;;;;;;6.72;6.22;;;;;;;;;;5033566;28;20473;-72
2022/07/06 07:45:47;;;;;;;7.43;6.82;;;;;;;;;;5033565;28;20173;-71
2022/07/06 07:48:12;;;;;;;8.07;7.30;;;;;;;;;;5033826;28;20030;-71
2022/07/06 07:50:37;;;;;;;10.30;9.30;;;;;;;;;;5033494;28;20021;-71
2022/07/06 07:53:03;;;;;;;8.77;7.97;;;;;;;;;;5036903;28;20028;-71
2022/07/06 07:55:28;;;;;;;9.10;8.02;;;;;;;;;;5019390;28;20017;-71
2022/07/06 07:57:54;;;;;;;9.30;8.50;;;;;;;;;;5019225;28;20041;-71
2022/07/06 08:00:21;;;;;;;9.00;8.25;;;;;;;;;;5036982;28;20021;-71
2022/07/06 08:02:46;;;;;;;9.32;8.43;;;;;;;;;;5019241;28;20113;-72
2022/07/06 08:05:13;;;;;;;8.13;7.50;;;;;;;;;;5036907;28;20503;-66
2022/07/06 08:07:39;;;;;;;8.77;8.07;;;;;;;;;;5019140;28;20033;-66
2022/07/06 08:10:04;;;;;;;9.98;7.57;;;;;;;;;;5037117;28;20065;-66
2022/07/06 08:12:30;;;;;;;6.15;5.20;;;;;;;;;;5037034;28;20040;-66
2022/07/06 08:14:56;;;;;;;8.93;7.35;;;;;;;;;;5036740;28;20022;-66
2022/07/06 08:17:21;;;;;;;5.90;5.43;;;;;;;;;;5018846;28;20068;-66
2022/07/06 08:19:47;;;;;;;6.78;6.22;;;;;;;;;;5036612;28;20057;-65
2022/07/06 08:22:13;;;;;;;5.90;5.40;;;;;;;;;;5036841;28;20039;-64
2022/07/06 08:24:38;;;;;;;10.00;7.90;;;;;;;;;;5036824;28;20478;-64
2022/07/06 08:27:04;;;;;;;8.05;6.85;;;;;;;;;;5036332;28;20037;-64
2022/07/06 08:29:31;;;;;;;11.80;10.70;;;;;;;;;;5018692;28;20032;-67
2022/07/06 08:31:56;;;;;;;10.57;9.52;;;;;;;;;;5036723;28;20049;-65
2022/07/06 08:34:22;;;;;;;14.02;12.75;;;;;;;;;;5036651;28;20076;-66
2022/07/06 08:36:58;;;;;;;17.35;15.65;;;;;;;;;;5036277;28;20029;-66
2022/07/06 08:39:24;;;;;;;14.80;11.80;;;;;;;;;;5036573;28;20400;-66
2022/07/06 08:41:50;;;;;;;14.23;12.80;;;;;;;;;;5036213;28;20021;-66
2022/07/06 08:44:16;;;;;;;16.35;14.65;;;;;;;;;;5036459;28;20022;-66
2022/07/06 08:46:42;;;;;;;14.77;13.38;;;;;;;;;;5018346;28;20468;-66
2022/07/06 08:49:11;;;;;;;15.13;13.63;;;;;;;;;;5036113;28;20057;-66
2022/07/06 08:51:37;;;;;;;15.60;14.10;;;;;;;;;;5018324;28;20391;-66
2022/07/06 08:54:03;;;;;;;11.55;10.07;;;;;;;;;;5035983;28;20025;-66
2022/07/06 08:56:29;;;;;;;14.40;13.00;;;;;;;;;;5036170;28;20041;-66
2022/07/06 08:58:55;;;;;;;12.02;10.93;;;;;;;;;;5035906;28;20052;-66
2022/07/06 09:01:21;;;;;;;11.65;9.90;;;;;;;;;;5036190;28;20021;-66
2022/07/06 09:03:48;;;;;;;11.63;10.57;;;;;;;;;;5034777;28;20460;-66
2022/07/06 09:06:16;;;;;;;12.70;11.50;;;;;;;;;;5035798;28;20022;-66
2022/07/06 09:08:42;;;;;;;7.13;6.60;;;;;;;;;;5035684;28;20041;-66
2022/07/06 09:11:08;;;;;;;8.15;7.40;;;;;;;;;;5017988;28;20026;-66
2022/07/06 09:13:33;;;;;;;9.60;8.77;;;;;;;;;;5017919;28;20502;-66
2022/07/06 09:16:11;;;;;;;8.27;7.28;;;;;;;;;;5035813;28;20021;-66
2022/07/06 09:18:42;;;;;;;8.35;7.72;;;;;;;;;;5036117;28;20563;-66
2022/07/06 09:21:07;;;;;;;;;;;;;;;;;;5035868;28;20391;-65
2022/07/06 09:23:33;;;;;;;7.70;6.97;;;;;;;;;;5035525;28;19905;-66
2022/07/06 09:26:01;;;;;;;7.60;6.97;;;;;;;;;;5035426;28;20730;-66
2022/07/06 09:28:40;;;;;;;6.55;6.05;;;;;;;;;;5035279;28;20033;-66
2022/07/06 09:31:08;;;;;;;7.43;6.72;;;;;;;;;;5035239;28;20036;-66
2022/07/06 09:33:34;;;;;;;9.55;7.00;;;;;;;;;;5035572;28;20048;-66
2022/07/06 09:36:01;;;;;;;6.25;5.75;;;;;;;;;;5035415;28;20116;-66
2022/07/06 09:38:27;;;;;;;5.78;5.28;;;;;;;;;;5035201;28;20487;-66
2022/07/06 09:40:52;;;;;;;7.35;6.75;;;;;;;;;;5035161;28;20025;-66
2022/07/06 09:43:23;;;;;;;5.72;5.30;;;;;;;;;;5017412;28;20478;-66
2022/07/06 09:45:50;;;;;;;5.88;5.30;;;;;;;;;;5035614;28;20026;-66
2022/07/06 09:48:23;;;;;;;6.97;5.25;;;;;;;;;;5035065;28;20030;-66
2022/07/06 09:50:50;;;;;;;5.05;4.75;;;;;;;;;;5034950;28;20529;-66
2022/07/06 09:53:16;;;;;;;5.03;4.63;;;;;;;;;;5017224;28;20025;-66
2022/07/06 09:55:45;;;;;;;5.07;4.68;;;;;;;;;;5035170;28;20040;-66
2022/07/06 09:58:11;;;;;;;5.05;4.57;;;;;;;;;;5035050;28;20363;-66
2022/07/06 10:00:36;;;;;;;5.78;5.22;;;;;;;;;;5034800;28;20087;-66
2022/07/06 10:03:02;;;;;;;4.82;4.43;;;;;;;;;;5034702;28;20025;-66
2022/07/06 10:05:29;;;;;;;4.35;4.07;;;;;;;;;;5034647;28;20029;-66
2022/07/06 10:07:59;;;;;;;4.00;3.70;;;;;;;;;;5034924;28;20116;-66
2022/07/06 10:10:26;;;;;;;4.10;3.78;;;;;;;;;;5034895;28;20044;-66
2022/07/06 10:12:53;;;;;;;4.20;3.85;;;;;;;;;;5034521;28;20075;-66
2022/07/06 10:15:20;;;;;;;5.97;4.03;;;;;;;;;;5034651;28;20029;-66
2022/07/06 10:17:47;;;;;;;4.18;3.78;;;;;;;;;;5034385;28;20103;-66
2022/07/06 10:20:14;;;;;;;3.50;3.30;;;;;;;;;;5034657;28;20375;-66
2022/07/06 10:22:40;;;;;;;4.10;3.80;;;;;;;;;;5034905;28;20017;-66
2022/07/06 10:25:05;;;;;;;4.00;3.70;;;;;;;;;;5034628;28;20388;-66
2022/07/06 10:27:32;;;;;;;3.90;3.60;;;;;;;;;;5033724;28;20059;-66
2022/07/06 10:29:57;;;;;;;4.03;3.63;;;;;;;;;;5033442;28;20488;-66
2022/07/06 10:32:24;;;;;;;4.45;3.80;;;;;;;;;;5033953;28;20029;-66
2022/07/06 10:34:49;;;;;;;4.38;4.10;;;;;;;;;;5033660;28;20479;-66
2022/07/06 10:37:25;;;;;;;3.83;3.58;;;;;;;;;;5033262;28;20029;-65
2022/07/06 10:42:42;;;;;;;4.47;3.65;;;;;;;;;;5033273;28;20387;-66
2022/07/06 10:45:08;;;;;;;3.53;3.28;;;;;;;;;;5033771;28;20440;-65
2022/07/06 10:47:35;;;;;;;3.53;3.33;;;;;;;;;;5033222;28;20024;-66
2022/07/06 10:50:00;;;;;;;5.18;3.38;;;;;;;;;;5033419;28;20029;-66
2022/07/06 10:52:44;;;;;;;3.28;3.08;;;;;;;;;;5015793;28;20021;-65
2022/07/06 10:55:28;;;;;;;3.20;2.90;;;;;;;;;;5033105;28;20021;-66
2022/07/06 10:57:54;;;;;;;3.33;3.03;;;;;;;;;;5032999;28;20067;-66
2022/07/06 11:00:19;;;;;;;2.92;2.70;;;;;;;;;;5015938;28;20045;-66
2022/07/06 11:02:45;;;;;;;3.13;2.92;;;;;;;;;;5032700;28;20494;-66
2022/07/06 11:05:11;;;;;;;3.13;2.92;;;;;;;;;;5033247;28;20043;-66
2022/07/06 11:07:48;;;;;;;2.70;2.60;;;;;;;;;;5033195;28;20124;-76
2022/07/06 11:10:14;;;;;;;2.63;2.35;;;;;;;;;;5033165;28;20472;-66
2022/07/06 11:12:44;;;;;;;3.10;2.33;;;;;;;;;;5031804;28;20056;-67
2022/07/06 11:15:09;;;;;;;2.58;2.38;;;;;;;;;;5031571;28;20044;-67
2022/07/06 11:17:35;;;;;;;2.42;2.00;;;;;;;;;;5031794;28;20021;-66
2022/07/06 11:20:10;;;;;;;2.25;2.05;;;;;;;;;;5031699;28;20028;-67
2022/07/06 11:22:37;;;;;;;2.03;1.92;;;;;;;;;;5031685;28;20026;-67
2022/07/06 11:25:02;;;;;;;2.53;1.88;;;;;;;;;;5031495;28;20380;-67
2022/07/06 11:27:28;;;;;;;2.40;2.20;;;;;;;;;;4986919;28;1365097;-67
2022/07/06 11:29:54;;;;;;;2.00;1.90;;;;;;;;;;5036646;28;20057;-67
2022/07/06 11:32:23;;;;;;;2.15;2.05;;;;;;;;;;5036581;28;20498;-67
2022/07/06 11:34:52;;;;;;;2.30;1.80;;;;;;;;;;5036302;28;20172;-67
2022/07/06 11:37:18;;;;;;;1.92;1.80;;;;;;;;;;5036301;28;20032;-67
2022/07/06 11:39:44;;;;;;;3.10;1.80;;;;;;;;;;5036337;28;20379;-67
2022/07/06 11:42:10;;;;;;;2.85;2.00;;;;;;;;;;5018977;28;20016;-67
2022/07/06 11:44:37;;;;;;;2.42;1.88;;;;;;;;;;5018599;28;20029;-67
2022/07/06 11:47:03;;;;;;;2.00;1.90;;;;;;;;;;5036193;28;20053;-67
2022/07/06 11:49:32;;;;;;;2.22;2.03;;;;;;;;;;5036148;28;20119;-67
2022/07/06 11:51:58;;;;;;;1.90;1.80;;;;;;;;;;5036057;28;20028;-67
2022/07/06 11:54:24;;;;;;;2.03;1.92;;;;;;;;;;5036115;28;20387;-67
2022/07/06 11:56:49;;;;;;;1.95;1.85;;;;;;;;;;5035935;28;20373;-67
2022/07/06 11:59:15;;;;;;;2.17;1.80;;;;;;;;;;5018229;28;20096;-67
2022/07/06 12:01:43;;;;;;;1.95;1.85;;;;;;;;;;5035948;28;20096;-67
2022/07/06 12:04:09;;;;;;;1.90;1.80;;;;;;;;;;5035851;28;20026;-67
2022/07/06 12:06:34;;;;;;;1.80;1.70;;;;;;;;;;5035820;28;20029;-67
2022/07/06 12:09:04;;;;;;;2.75;1.70;;;;;;;;;;5035838;28;20039;-72
2022/07/06 12:11:34;;;;;;;3.28;1.73;;;;;;;;;;5018179;28;20427;-72
2022/07/06 12:14:01;;;;;;;2.15;2.05;;;;;;;;;;5035794;28;20033;-72
2022/07/06 12:16:34;;;;;;;2.00;1.90;;;;;;;;;;5035632;28;20035;-72
2022/07/06 12:19:01;;;;;;;2.40;2.10;;;;;;;;;;5035543;28;20030;-72
2022/07/06 12:21:26;;;;;;;5.13;2.40;;;;;;;;;;5035570;28;20100;-73
2022/07/06 12:23:53;;;;;;;4.50;2.20;;;;;;;;;;5035845;28;20116;-72
2022/07/06 12:26:19;;;;;;;3.15;2.60;;;;;;;;;;5035460;28;20021;-72
2022/07/06 12:28:45;;;;;;;3.63;2.13;;;;;;;;;;5035560;28;20045;-72
2022/07/06 12:31:11;;;;;;;3.15;2.20;;;;;;;;;;5035443;28;20108;-72
2022/07/06 12:33:37;;;;;;;4.10;2.40;;;;;;;;;;5035371;28;20587;-72
2022/07/06 12:36:09;;;;;;;3.13;2.10;;;;;;;;;;5035218;28;20021;-72
2022/07/06 12:38:34;;;;;;;5.45;2.40;;;;;;;;;;5033912;28;20091;-72
2022/07/06 12:41:02;;;;;;;2.33;2.13;;;;;;;;;;5035122;28;20455;-67
2022/07/06 12:43:34;;;;;;;3.60;2.40;;;;;;;;;;5035433;28;20029;-67
2022/07/06 12:46:20;;;;;;;2.67;1.95;;;;;;;;;;5035056;28;20038;-67
2022/07/06 12:48:52;;;;;;;2.35;2.00;;;;;;;;;;5034873;28;20024;-67
2022/07/06 12:51:18;;;;;;;2.40;2.20;;;;;;;;;;5034933;28;20030;-67
2022/07/06 12:53:43;;;;;;;2.75;1.67;;;;;;;;;;5034876;28;20022;-67
2022/07/06 12:56:10;;;;;;;1.90;1.80;;;;;;;;;;5034776;28;20472;-66
2022/07/06 12:58:35;;;;;;;3.15;2.00;;;;;;;;;;5034833;28;20017;-67
2022/07/06 13:01:01;;;;;;;3.45;2.10;;;;;;;;;;5034733;28;20032;-67
2022/07/06 13:03:26;;;;;;;2.53;1.85;;;;;;;;;;5034776;28;20028;-67
2022/07/06 13:05:52;;;;;;;2.83;2.10;;;;;;;;;;5034713;28;20472;-66
2022/07/06 13:08:17;;;;;;;2.05;1.95;;;;;;;;;;5034682;28;20032;-68
2022/07/06 13:10:44;;;;;;;2.67;1.90;;;;;;;;;;5034776;28;20032;-67
2022/07/06 13:13:10;;;;;;;1.90;1.80;;;;;;;;;;5035111;28;20021;-67
2022/07/06 13:15:35;;;;;;;1.85;1.75;;;;;;;;;;5035483;28;20035;-67
2022/07/06 13:18:00;;;;;;;1.92;1.83;;;;;;;;;;5035486;28;20502;-67
2022/07/06 13:20:26;;;;;;;2.67;1.48;;;;;;;;;;5035697;28;20030;-67
2022/07/06 13:22:51;;;;;;;1.88;1.77;;;;;;;;;;5035494;28;20476;-67
2022/07/06 13:25:17;;;;;;;1.88;1.77;;;;;;;;;;5035667;28;20038;-67
2022/07/06 13:27:43;;;;;;;1.60;1.50;;;;;;;;;;5035528;28;20100;-67
2022/07/06 13:30:10;;;;;;;1.90;1.80;;;;;;;;;;5035311;28;20033;-67
2022/07/06 13:32:35;;;;;;;1.70;1.60;;;;;;;;;;5035176;28;20017;-67
2022/07/06 13:35:01;;;;;;;2.63;2.00;;;;;;;;;;5035861;28;20033;-67
2022/07/06 13:37:26;;;;;;;2.95;2.05;;;;;;;;;;5035196;28;20028;-67
2022/07/06 13:39:51;;;;;;;2.55;1.95;;;;;;;;;;5035130;28;20025;-67
2022/07/06 13:42:17;;;;;;;1.70;1.60;;;;;;;;;;5035258;28;20020;-67
2022/07/06 13:44:42;;;;;;;1.65;1.55;;;;;;;;;;5035555;28;20108;-67
2022/07/06 13:47:08;;;;;;;2.85;1.60;;;;;;;;;;5035292;28;20025;-67
2022/07/06 13:49:33;;;;;;;1.67;1.58;;;;;;;;;;5017051;28;20052;-67
2022/07/06 13:52:03;;;;;;;1.90;1.80;;;;;;;;;;5034656;28;20048;-67
2022/07/06 13:54:29;;;;;;;1.63;1.52;;;;;;;;;;5034656;28;20029;-67
2022/07/06 13:56:54;;;;;;;1.98;1.63;;;;;;;;;;5032968;28;20029;-67
2022/07/06 13:59:20;;;;;;;1.95;1.77;;;;;;;;;;5034002;28;20030;-67
2022/07/06 14:01:45;;;;;;;3.33;2.05;;;;;;;;;;5033819;28;20455;-67
2022/07/06 14:04:11;;;;;;;1.88;1.77;;;;;;;;;;5033590;28;20026;-67
2022/07/06 14:06:36;;;;;;;2.13;1.75;;;;;;;;;;5033595;28;20021;-67
2022/07/06 14:09:02;;;;;;;1.75;1.65;;;;;;;;;;5033627;28;20036;-67
2022/07/06 14:11:28;;;;;;;1.80;1.52;;;;;;;;;;5031415;28;20164;-67
2022/07/06 14:13:54;;;;;;;1.83;1.73;;;;;;;;;;5030222;28;20183;-67
2022/07/06 14:16:19;;;;;;;3.25;1.52;;;;;;;;;;5030071;28;20453;-67
2022/07/06 14:18:44;;;;;;;1.98;1.70;;;;;;;;;;5011935;28;20048;-67
2022/07/06 14:21:10;;;;;;;1.40;1.30;;;;;;;;;;5031729;28;20028;-67
2022/07/06 14:23:35;;;;;;;2.03;1.92;;;;;;;;;;5033267;28;20057;-67
2022/07/06 14:26:01;;;;;;;2.03;1.88;;;;;;;;;;5015474;28;20053;-67
2022/07/06 14:28:26;;;;;;;1.92;1.80;;;;;;;;;;5033002;28;20080;-67
2022/07/06 14:30:52;;;;;;;2.30;2.10;;;;;;;;;;5033161;28;20375;-67
2022/07/06 14:33:19;;;;;;;1.88;1.67;;;;;;;;;;5032889;28;20437;-67
2022/07/06 14:35:48;;;;;;;2.10;2.00;;;;;;;;;;5033200;28;20022;-67
2022/07/06 14:38:17;;;;;;;1.63;1.52;;;;;;;;;;5031688;28;20122;-67
2022/07/06 14:40:43;;;;;;;1.70;1.60;;;;;;;;;;5033050;28;20025;-67
2022/07/06 14:43:09;;;;;;;1.98;1.77;;;;;;;;;;5014317;28;20028;-69
2022/07/06 14:45:34;;;;;;;1.75;1.60;;;;;;;;;;5032865;28;20383;-69